createdAt,value
2022-09-18T00:00:35.782Z,75.28
2022-09-18T00:05:44.493Z,75.64
2022-09-18T00:10:51.224Z,75.34
2022-09-18T00:15:59.476Z,75.33
2022-09-18T00:21:06.897Z,75.39
2022-09-18T00:26:16.320Z,75.23
2022-09-18T00:31:23.153Z,74.98001
2022-09-18T00:36:30.976Z,75.05001
2022-09-18T00:41:39.424Z,74.72
2022-09-18T00:46:46.663Z,75.41
2022-09-18T00:51:55.010Z,75.39
2022-09-18T00:57:02.403Z,75.12001
2022-09-18T01:02:10.553Z,74.96
2022-09-18T01:07:18.061Z,74.21
2022-09-18T01:12:25.268Z,74.14
2022-09-18T01:17:33.118Z,73.66001
2022-09-18T01:22:40.821Z,73.99
2022-09-18T01:27:48.524Z,73.96
2022-09-18T01:32:56.366Z,75.07
2022-09-18T01:38:04.364Z,75.2
2022-09-18T01:43:13.174Z,74.67
2022-09-18T01:48:20.777Z,74.38
2022-09-18T01:53:27.991Z,74.86
2022-09-18T01:58:35.206Z,75.21
2022-09-18T02:03:49.469Z,74.91001
2022-09-18T02:08:56.590Z,75.15
2022-09-18T02:14:03.784Z,75.69
2022-09-18T02:19:12.666Z,75.66
2022-09-18T02:24:21.750Z,75.55
2022-09-18T02:29:30.377Z,74.63
2022-09-18T02:34:38.806Z,74.76
2022-09-18T02:42:48.602Z,73.35
2022-09-18T02:47:53.222Z,73.05
2022-09-18T02:53:01.109Z,73.17
2022-09-18T02:58:09.206Z,73.08
2022-09-18T03:03:16.404Z,73.16
2022-09-18T03:08:24.694Z,73.19
2022-09-18T03:13:32.425Z,73.39
2022-09-18T03:18:39.810Z,72.92
2022-09-18T03:23:48.650Z,72.58
2022-09-18T03:28:57.751Z,72.78
2022-09-18T03:34:06.486Z,72.78
2022-09-18T03:39:15.622Z,73.0
2022-09-18T03:44:22.600Z,73.01
2022-09-18T03:49:29.683Z,72.61
2022-09-18T03:54:37.060Z,72.65
2022-09-18T03:59:44.549Z,73.18
2022-09-18T04:04:52.628Z,73.3
2022-09-18T04:10:07.614Z,74.39
2022-09-18T04:15:16.186Z,74.4
2022-09-18T04:20:24.262Z,74.23
2022-09-18T04:25:31.830Z,73.84
2022-09-18T04:30:39.200Z,74.18
2022-09-18T04:35:46.817Z,74.23
2022-09-18T04:40:55.810Z,74.05
2022-09-18T04:46:03.142Z,73.63
2022-09-18T04:51:11.299Z,73.22
2022-09-18T04:56:18.810Z,73.21
2022-09-18T05:01:27.799Z,73.24
2022-09-18T05:06:35.338Z,73.16
2022-09-18T05:11:42.961Z,73.22
2022-09-18T05:16:51.068Z,73.54
2022-09-18T05:21:58.487Z,73.08
2022-09-18T05:27:07.000Z,73.56
2022-09-18T05:32:15.271Z,73.52
2022-09-18T05:37:24.235Z,74.06
2022-09-18T05:42:32.679Z,73.98
2022-09-18T05:47:41.230Z,74.0
2022-09-18T05:52:49.891Z,73.79
2022-09-18T05:57:57.544Z,73.7
2022-09-18T06:03:05.859Z,73.21
2022-09-18T06:08:14.221Z,73.04
2022-09-18T06:13:22.699Z,73.13
2022-09-18T06:18:30.388Z,72.89
2022-09-18T06:23:38.501Z,72.77
2022-09-18T06:28:45.680Z,72.72
2022-09-18T06:33:54.699Z,72.03
2022-09-18T06:39:06.796Z,72.15
2022-09-18T06:44:16.304Z,66.99
2022-09-18T06:49:24.396Z,68.33
2022-09-18T06:54:33.219Z,64.0
2022-09-18T06:59:43.571Z,58.01
2022-09-18T07:04:54.729Z,60.33
2022-09-18T07:10:10.216Z,57.54
2022-09-18T07:15:19.751Z,56.8
2022-09-18T07:20:34.703Z,59.94
2022-09-18T07:25:43.138Z,63.32
2022-09-18T07:30:53.747Z,61.4
2022-09-18T07:36:01.884Z,60.36
2022-09-18T07:41:08.737Z,57.21
2022-09-18T07:46:17.047Z,53.82
2022-09-18T07:51:24.987Z,53.8
2022-09-18T07:56:32.866Z,56.77
2022-09-18T08:01:48.788Z,54.93
2022-09-18T08:06:56.356Z,57.34
2022-09-18T08:12:04.099Z,64.63
2022-09-18T08:17:10.017Z,70.62
2022-09-18T08:22:17.355Z,74.39
2022-09-18T08:27:25.244Z,75.24
2022-09-18T08:32:33.221Z,77.6
2022-09-18T08:37:41.112Z,72.53
2022-09-18T08:42:48.566Z,72.53
2022-09-18T08:47:56.378Z,77.42
2022-09-18T08:53:02.974Z,76.53
2022-09-18T08:58:10.814Z,74.4
2022-09-18T09:03:21.231Z,68.96
2022-09-18T09:08:30.159Z,67.2
2022-09-18T09:13:39.461Z,67.77
2022-09-18T09:18:46.029Z,70.94
2022-09-18T09:23:54.507Z,70.8
2022-09-18T09:29:03.034Z,68.33
2022-09-18T09:34:10.788Z,64.1
2022-09-18T09:39:18.603Z,61.41
2022-09-18T09:44:27.113Z,59.31
2022-09-18T09:49:35.416Z,58.34
2022-09-18T09:54:42.359Z,57.39
2022-09-18T09:59:50.616Z,53.22
2022-09-18T10:04:58.536Z,49.66
2022-09-18T10:10:06.565Z,44.85
2022-09-18T10:15:22.303Z,43.46
2022-09-18T10:20:29.693Z,42.16
2022-09-18T10:25:36.908Z,42.65
2022-09-18T10:30:44.466Z,42.26
2022-09-18T10:35:52.474Z,40.67
2022-09-18T10:41:00.126Z,40.18
2022-09-18T10:46:08.195Z,40.86
2022-09-18T10:51:17.243Z,42.55
2022-09-18T10:56:23.939Z,44.48
2022-09-18T11:01:32.048Z,47.18
2022-09-18T11:06:39.725Z,43.92
2022-09-18T11:11:48.056Z,40.62
2022-09-18T11:16:54.727Z,43.09
2022-09-18T11:22:03.256Z,42.9
2022-09-18T11:27:11.181Z,48.75
2022-09-18T11:32:18.191Z,52.95
2022-09-18T11:37:25.855Z,69.78
2022-09-18T11:42:33.874Z,70.27
2022-09-18T11:47:40.431Z,60.52
2022-09-18T11:52:50.068Z,58.99
2022-09-18T11:57:57.826Z,54.4
2022-09-18T12:03:05.823Z,54.67
2022-09-18T12:08:11.115Z,57.29
2022-09-18T12:13:19.712Z,56.32
2022-09-18T12:18:26.832Z,57.2
2022-09-18T12:23:32.697Z,60.39
2022-09-18T12:28:40.731Z,59.32
2022-09-18T12:33:47.986Z,61.83
2022-09-18T12:38:55.546Z,61.78
2022-09-18T12:44:08.518Z,62.56
2022-09-18T12:49:56.672Z,60.89
2022-09-18T12:55:03.868Z,59.86
2022-09-18T13:00:12.584Z,61.58
2022-09-18T13:05:21.450Z,63.28
2022-09-18T13:10:28.273Z,63.5
2022-09-18T13:15:36.944Z,65.7
2022-09-18T13:20:44.466Z,61.03
2022-09-18T13:25:52.753Z,60.38
2022-09-18T13:31:00.687Z,61.31
2022-09-18T13:36:08.738Z,62.42
2022-09-18T13:41:17.162Z,61.47
2022-09-18T13:46:25.562Z,60.68
2022-09-18T13:51:34.058Z,61.95
2022-09-18T13:56:41.389Z,63.22
2022-09-18T14:01:49.186Z,64.82
2022-09-18T14:06:57.848Z,64.94
2022-09-18T14:12:05.955Z,65.0
2022-09-18T14:17:14.457Z,64.6
2022-09-18T14:22:22.231Z,65.92
2022-09-18T14:27:30.284Z,66.53
2022-09-18T14:32:38.368Z,66.8
2022-09-18T14:37:45.177Z,67.04
2022-09-18T14:42:53.088Z,66.49
2022-09-18T14:48:01.271Z,67.24
2022-09-18T14:53:08.746Z,67.82
2022-09-18T14:58:16.320Z,68.27
2022-09-18T15:03:23.505Z,68.52
2022-09-18T15:08:30.633Z,69.74
2022-09-18T15:13:39.145Z,69.49
2022-09-18T15:18:48.798Z,70.11
2022-09-18T15:23:56.095Z,70.54
2022-09-18T15:29:03.706Z,70.16
2022-09-18T15:34:11.292Z,70.15
2022-09-18T15:39:18.630Z,70.45
2022-09-18T15:44:26.868Z,70.63
2022-09-18T15:49:34.339Z,71.14
2022-09-18T15:54:41.535Z,71.78
2022-09-18T15:59:49.881Z,72.46
2022-09-18T16:04:58.105Z,73.19
2022-09-18T16:10:06.948Z,73.32
2022-09-18T16:15:15.245Z,73.98
2022-09-18T16:20:22.691Z,74.76
2022-09-18T16:25:30.995Z,75.21
2022-09-18T16:30:39.028Z,75.86
2022-09-18T16:35:46.168Z,76.08
2022-09-18T16:40:54.561Z,76.47
2022-09-18T16:46:01.854Z,76.38
2022-09-18T16:51:10.068Z,76.42
2022-09-18T16:56:17.580Z,76.36
2022-09-18T17:01:29.664Z,76.28
2022-09-18T17:06:37.102Z,76.48
2022-09-18T17:11:45.623Z,76.88
2022-09-18T17:16:53.520Z,76.02
2022-09-18T17:22:01.971Z,74.94
2022-09-18T17:27:10.702Z,73.94001
2022-09-18T17:32:18.821Z,73.64
2022-09-18T17:37:27.181Z,73.42
2022-09-18T17:42:33.865Z,73.29
2022-09-18T17:47:42.837Z,72.75
2022-09-18T17:52:50.670Z,72.84
2022-09-18T17:57:58.980Z,72.26
2022-09-18T18:03:06.236Z,72.29
2022-09-18T18:08:14.853Z,72.51
2022-09-18T18:13:23.193Z,73.17
2022-09-18T18:18:31.346Z,73.23
2022-09-18T18:23:39.293Z,73.44
2022-09-18T18:28:46.983Z,73.26
2022-09-18T18:33:54.508Z,72.97
2022-09-18T18:39:03.175Z,73.49
2022-09-18T18:44:10.498Z,73.49
2022-09-18T18:49:17.757Z,73.31
2022-09-18T18:54:24.251Z,73.46
2022-09-18T18:59:31.892Z,73.5
2022-09-18T19:04:39.298Z,74.14
2022-09-18T19:09:47.129Z,73.62
2022-09-18T19:14:55.112Z,74.13
2022-09-18T19:20:02.182Z,74.35
2022-09-18T19:25:09.569Z,74.16
2022-09-18T19:30:17.339Z,74.28
2022-09-18T19:35:25.904Z,74.22
2022-09-18T19:40:34.009Z,74.22
2022-09-18T19:45:42.532Z,74.62
2022-09-18T19:50:49.872Z,74.89
2022-09-18T19:55:57.399Z,75.3
2022-09-18T20:01:04.844Z,75.26
2022-09-18T20:06:12.103Z,75.3
2022-09-18T20:11:20.449Z,75.31
2022-09-18T20:16:27.601Z,75.1
2022-09-18T20:21:38.181Z,74.85
2022-09-18T20:26:45.380Z,74.56
2022-09-18T20:31:52.578Z,73.96
2022-09-18T20:37:01.813Z,73.89
2022-09-18T20:42:10.455Z,73.74
2022-09-18T20:47:18.614Z,73.53
2022-09-18T20:52:26.937Z,73.45
2022-09-18T20:57:34.348Z,73.12
2022-09-18T21:02:42.055Z,73.12
2022-09-18T21:07:48.783Z,73.01
2022-09-18T21:12:57.415Z,72.9
2022-09-18T21:18:05.115Z,72.4
2022-09-18T21:23:12.414Z,72.62001
2022-09-18T21:28:27.775Z,72.28
2022-09-18T21:33:34.852Z,71.9
2022-09-18T21:38:43.823Z,71.92
2022-09-18T21:43:51.676Z,72.32
2022-09-18T21:48:59.567Z,71.26
2022-09-18T21:54:09.049Z,72.06
2022-09-18T21:59:16.747Z,72.05
2022-09-18T22:04:24.150Z,71.4
2022-09-18T22:09:31.340Z,71.2
2022-09-18T22:14:39.223Z,70.83
2022-09-18T22:19:47.307Z,70.58
2022-09-18T22:24:54.079Z,70.72
2022-09-18T22:30:01.824Z,70.73
2022-09-18T22:35:10.123Z,70.74
2022-09-18T22:40:18.708Z,70.54
2022-09-18T22:45:25.437Z,70.95
2022-09-18T22:50:34.151Z,70.98001
2022-09-18T22:55:41.702Z,70.76
2022-09-18T23:00:50.232Z,71.1
2022-09-18T23:05:57.928Z,70.78
2022-09-18T23:11:05.912Z,70.97
2022-09-18T23:16:13.652Z,71.33
2022-09-18T23:21:20.922Z,71.16001
2022-09-18T23:26:28.173Z,70.48
2022-09-18T23:31:35.799Z,70.7
2022-09-18T23:36:43.790Z,70.51
2022-09-18T23:41:51.619Z,70.35
2022-09-18T23:46:59.001Z,70.3
2022-09-18T23:52:07.118Z,70.56
2022-09-18T23:57:14.554Z,70.79
